sensor_id;sensor_type;location;lat;lon;timestamp;pressure;altitude;pressure_sealevel;temperature;humidity
21640;BME280;10981;45.462;10.974;2024-02-21T00:00:17;101597.38;;;6.17;100.00
21640;BME280;10981;45.462;10.974;2024-02-21T00:02:45;101599.69;;;6.04;100.00
21640;BME280;10981;45.462;10.974;2024-02-21T00:05:16;101598.25;;;5.98;100.00
21640;BME280;10981;45.462;10.974;2024-02-21T00:07:45;101596.59;;;5.96;100.00
21640;BME280;10981;45.462;10.974;2024-02-21T00:10:13;101597.50;;;5.95;100.00
21640;BME280;10981;45.462;10.974;2024-02-21T00:12:41;101595.75;;;5.95;100.00
21640;BME280;10981;45.462;10.974;2024-02-21T00:15:10;101595.00;;;5.93;100.00
21640;BME280;10981;45.462;10.974;2024-02-21T00:17:41;101604.31;;;5.97;100.00
21640;BME280;10981;45.462;10.974;2024-02-21T00:20:09;101601.59;;;6.00;100.00
21640;BME280;10981;45.462;10.974;2024-02-21T00:22:38;101601.50;;;6.02;100.00
21640;BME280;10981;45.462;10.974;2024-02-21T00:25:07;101598.09;;;6.01;100.00
21640;BME280;10981;45.462;10.974;2024-02-21T00:27:38;101600.69;;;6.01;100.00
21640;BME280;10981;45.462;10.974;2024-02-21T00:30:10;101605.22;;;5.96;100.00
21640;BME280;10981;45.462;10.974;2024-02-21T00:32:38;101594.38;;;5.88;100.00
21640;BME280;10981;45.462;10.974;2024-02-21T00:35:06;101600.81;;;5.79;100.00
21640;BME280;10981;45.462;10.974;2024-02-21T00:37:35;101594.06;;;5.75;100.00
21640;BME280;10981;45.462;10.974;2024-02-21T00:40:03;101588.94;;;5.73;100.00
21640;BME280;10981;45.462;10.974;2024-02-21T00:42:33;101594.13;;;5.73;100.00
21640;BME280;10981;45.462;10.974;2024-02-21T00:45:01;101587.13;;;5.76;100.00
21640;BME280;10981;45.462;10.974;2024-02-21T00:47:29;101591.25;;;5.80;100.00
21640;BME280;10981;45.462;10.974;2024-02-21T00:49:58;101595.47;;;5.82;100.00
21640;BME280;10981;45.462;10.974;2024-02-21T00:52:26;101590.44;;;5.79;100.00
21640;BME280;10981;45.462;10.974;2024-02-21T00:54:54;101581.78;;;5.79;100.00
21640;BME280;10981;45.462;10.974;2024-02-21T00:57:22;101584.53;;;5.76;100.00
21640;BME280;10981;45.462;10.974;2024-02-21T00:59:51;101582.00;;;5.74;100.00
21640;BME280;10981;45.462;10.974;2024-02-21T01:02:19;101577.81;;;5.71;100.00
21640;BME280;10981;45.462;10.974;2024-02-21T01:04:48;101572.53;;;5.73;100.00
21640;BME280;10981;45.462;10.974;2024-02-21T01:07:17;101583.91;;;5.70;100.00
21640;BME280;10981;45.462;10.974;2024-02-21T01:09:45;101572.81;;;5.67;100.00
21640;BME280;10981;45.462;10.974;2024-02-21T01:12:13;101577.13;;;5.66;100.00
21640;BME280;10981;45.462;10.974;2024-02-21T01:14:42;101577.81;;;5.71;100.00
21640;BME280;10981;45.462;10.974;2024-02-21T01:17:10;101575.22;;;5.71;100.00
21640;BME280;10981;45.462;10.974;2024-02-21T01:19:38;101580.66;;;5.65;100.00
21640;BME280;10981;45.462;10.974;2024-02-21T01:22:06;101573.00;;;5.62;100.00
21640;BME280;10981;45.462;10.974;2024-02-21T01:24:35;101578.34;;;5.59;100.00
21640;BME280;10981;45.462;10.974;2024-02-21T01:27:03;101573.34;;;5.54;100.00
21640;BME280;10981;45.462;10.974;2024-02-21T01:29:31;101568.25;;;5.53;100.00
21640;BME280;10981;45.462;10.974;2024-02-21T01:31:59;101568.78;;;5.60;100.00
21640;BME280;10981;45.462;10.974;2024-02-21T01:34:28;101571.19;;;5.64;100.00
21640;BME280;10981;45.462;10.974;2024-02-21T01:37:00;101568.44;;;5.67;100.00
21640;BME280;10981;45.462;10.974;2024-02-21T01:39:32;101566.28;;;5.58;100.00
21640;BME280;10981;45.462;10.974;2024-02-21T01:42:01;101564.81;;;5.52;100.00
21640;BME280;10981;45.462;10.974;2024-02-21T01:44:29;101570.19;;;5.48;100.00
21640;BME280;10981;45.462;10.974;2024-02-21T01:46:57;101572.09;;;5.44;100.00
21640;BME280;10981;45.462;10.974;2024-02-21T01:49:26;101578.25;;;5.42;100.00
21640;BME280;10981;45.462;10.974;2024-02-21T01:51:55;101579.31;;;5.37;100.00
21640;BME280;10981;45.462;10.974;2024-02-21T01:54:23;101577.53;;;5.38;100.00
21640;BME280;10981;45.462;10.974;2024-02-21T01:56:54;101576.66;;;5.39;100.00
21640;BME280;10981;45.462;10.974;2024-02-21T01:59:23;101577.22;;;5.46;100.00
21640;BME280;10981;45.462;10.974;2024-02-21T02:01:52;101574.06;;;5.58;100.00
21640;BME280;10981;45.462;10.974;2024-02-21T02:04:22;101572.72;;;5.68;100.00
21640;BME280;10981;45.462;10.974;2024-02-21T02:06:52;101570.69;;;5.75;100.00
21640;BME280;10981;45.462;10.974;2024-02-21T02:09:25;101569.03;;;5.74;100.00
21640;BME280;10981;45.462;10.974;2024-02-21T02:11:53;101566.00;;;5.64;100.00
21640;BME280;10981;45.462;10.974;2024-02-21T02:14:22;101562.22;;;5.52;100.00
21640;BME280;10981;45.462;10.974;2024-02-21T02:16:50;101558.31;;;5.42;100.00
21640;BME280;10981;45.462;10.974;2024-02-21T02:19:18;101555.16;;;5.35;100.00
21640;BME280;10981;45.462;10.974;2024-02-21T02:21:50;101564.09;;;5.30;100.00
21640;BME280;10981;45.462;10.974;2024-02-21T02:24:24;101571.00;;;5.29;100.00
21640;BME280;10981;45.462;10.974;2024-02-21T02:26:58;101569.41;;;5.27;100.00
21640;BME280;10981;45.462;10.974;2024-02-21T02:29:26;101560.06;;;5.22;100.00
21640;BME280;10981;45.462;10.974;2024-02-21T02:31:57;101555.03;;;5.19;100.00
21640;BME280;10981;45.462;10.974;2024-02-21T02:34:25;101555.16;;;5.16;100.00
21640;BME280;10981;45.462;10.974;2024-02-21T02:36:54;101547.50;;;5.13;100.00
21640;BME280;10981;45.462;10.974;2024-02-21T02:39:22;101547.44;;;5.15;100.00
21640;BME280;10981;45.462;10.974;2024-02-21T02:41:51;101543.94;;;5.16;100.00
21640;BME280;10981;45.462;10.974;2024-02-21T02:44:19;101542.41;;;5.12;100.00
21640;BME280;10981;45.462;10.974;2024-02-21T02:46:47;101545.91;;;5.11;100.00
21640;BME280;10981;45.462;10.974;2024-02-21T02:49:15;101542.31;;;5.13;100.00
21640;BME280;10981;45.462;10.974;2024-02-21T02:51:44;101544.91;;;5.13;100.00
21640;BME280;10981;45.462;10.974;2024-02-21T02:54:13;101538.81;;;5.14;100.00
21640;BME280;10981;45.462;10.974;2024-02-21T02:56:41;101540.44;;;5.17;100.00
21640;BME280;10981;45.462;10.974;2024-02-21T02:59:09;101544.00;;;5.14;100.00
21640;BME280;10981;45.462;10.974;2024-02-21T03:01:38;101544.13;;;5.11;100.00
21640;BME280;10981;45.462;10.974;2024-02-21T03:04:06;101539.00;;;5.10;100.00
21640;BME280;10981;45.462;10.974;2024-02-21T03:06:35;101547.69;;;5.08;100.00
21640;BME280;10981;45.462;10.974;2024-02-21T03:09:04;101540.56;;;5.14;100.00
21640;BME280;10981;45.462;10.974;2024-02-21T03:11:37;101542.06;;;5.19;100.00
21640;BME280;10981;45.462;10.974;2024-02-21T03:14:09;101536.88;;;5.19;100.00
21640;BME280;10981;45.462;10.974;2024-02-21T03:16:37;101543.03;;;5.17;100.00
21640;BME280;10981;45.462;10.974;2024-02-21T03:19:06;101547.25;;;5.19;100.00
21640;BME280;10981;45.462;10.974;2024-02-21T03:21:34;101543.44;;;5.27;100.00
21640;BME280;10981;45.462;10.974;2024-02-21T03:24:02;101558.56;;;5.37;100.00
21640;BME280;10981;45.462;10.974;2024-02-21T03:26:32;101563.13;;;5.51;100.00
21640;BME280;10981;45.462;10.974;2024-02-21T03:29:01;101560.53;;;5.51;100.00
21640;BME280;10981;45.462;10.974;2024-02-21T03:31:30;101568.41;;;5.50;100.00
21640;BME280;10981;45.462;10.974;2024-02-21T03:33:59;101562.34;;;5.49;100.00
21640;BME280;10981;45.462;10.974;2024-02-21T03:36:29;101552.88;;;5.48;100.00
21640;BME280;10981;45.462;10.974;2024-02-21T03:38:57;101559.94;;;5.45;100.00
21640;BME280;10981;45.462;10.974;2024-02-21T03:41:25;101557.41;;;5.43;100.00
21640;BME280;10981;45.462;10.974;2024-02-21T03:43:54;101557.31;;;5.46;100.00
21640;BME280;10981;45.462;10.974;2024-02-21T03:46:23;101556.25;;;5.50;100.00
21640;BME280;10981;45.462;10.974;2024-02-21T03:48:52;101560.38;;;5.54;100.00
21640;BME280;10981;45.462;10.974;2024-02-21T03:51:20;101557.84;;;5.53;100.00
21640;BME280;10981;45.462;10.974;2024-02-21T03:53:51;101556.16;;;5.52;100.00
21640;BME280;10981;45.462;10.974;2024-02-21T03:56:19;101548.66;;;5.46;100.00
21640;BME280;10981;45.462;10.974;2024-02-21T03:58:47;101546.28;;;5.41;100.00
21640;BME280;10981;45.462;10.974;2024-02-21T04:01:16;101542.91;;;5.39;100.00
21640;BME280;10981;45.462;10.974;2024-02-21T04:03:45;101550.78;;;5.37;100.00
21640;BME280;10981;45.462;10.974;2024-02-21T04:06:13;101543.97;;;5.35;100.00
21640;BME280;10981;45.462;10.974;2024-02-21T04:08:42;101544.88;;;5.34;100.00
21640;BME280;10981;45.462;10.974;2024-02-21T04:11:10;101546.69;;;5.32;100.00
21640;BME280;10981;45.462;10.974;2024-02-21T04:13:38;101544.94;;;5.32;100.00
21640;BME280;10981;45.462;10.974;2024-02-21T04:16:06;101547.72;;;5.28;100.00
21640;BME280;10981;45.462;10.974;2024-02-21T04:18:35;101558.25;;;5.24;100.00
21640;BME280;10981;45.462;10.974;2024-02-21T04:21:03;101556.75;;;5.19;100.00
21640;BME280;10981;45.462;10.974;2024-02-21T04:23:31;101563.72;;;5.18;100.00
21640;BME280;10981;45.462;10.974;2024-02-21T04:25:59;101556.19;;;5.12;100.00
21640;BME280;10981;45.462;10.974;2024-02-21T04:28:28;101554.44;;;5.13;100.00
21640;BME280;10981;45.462;10.974;2024-02-21T04:30:56;101556.38;;;5.07;100.00
21640;BME280;10981;45.462;10.974;2024-02-21T04:33:24;101558.22;;;4.85;100.00
21640;BME280;10981;45.462;10.974;2024-02-21T04:35:53;101547.34;;;4.77;100.00
21640;BME280;10981;45.462;10.974;2024-02-21T04:38:23;101546.69;;;4.71;100.00
21640;BME280;10981;45.462;10.974;2024-02-21T04:40:52;101546.13;;;4.65;100.00
21640;BME280;10981;45.462;10.974;2024-02-21T04:43:20;101555.63;;;4.64;100.00
21640;BME280;10981;45.462;10.974;2024-02-21T04:45:48;101562.34;;;4.68;100.00
21640;BME280;10981;45.462;10.974;2024-02-21T04:48:17;101557.97;;;4.70;100.00
21640;BME280;10981;45.462;10.974;2024-02-21T04:50:45;101568.50;;;4.66;100.00
21640;BME280;10981;45.462;10.974;2024-02-21T04:53:13;101560.09;;;4.61;100.00
21640;BME280;10981;45.462;10.974;2024-02-21T04:55:42;101559.31;;;4.58;100.00
21640;BME280;10981;45.462;10.974;2024-02-21T04:58:10;101567.09;;;4.58;100.00
21640;BME280;10981;45.462;10.974;2024-02-21T05:00:38;101565.47;;;4.56;100.00
21640;BME280;10981;45.462;10.974;2024-02-21T05:03:06;101567.28;;;4.54;100.00
21640;BME280;10981;45.462;10.974;2024-02-21T05:05:35;101569.75;;;4.57;100.00
21640;BME280;10981;45.462;10.974;2024-02-21T05:08:04;101581.03;;;4.56;100.00
21640;BME280;10981;45.462;10.974;2024-02-21T05:10:32;101576.88;;;4.52;100.00
21640;BME280;10981;45.462;10.974;2024-02-21T05:13:01;101571.94;;;4.46;100.00
21640;BME280;10981;45.462;10.974;2024-02-21T05:15:29;101572.06;;;4.42;100.00
21640;BME280;10981;45.462;10.974;2024-02-21T05:17:57;101572.06;;;4.42;100.00
21640;BME280;10981;45.462;10.974;2024-02-21T05:20:25;101570.97;;;4.48;100.00
21640;BME280;10981;45.462;10.974;2024-02-21T05:22:54;101554.56;;;4.48;100.00
21640;BME280;10981;45.462;10.974;2024-02-21T05:25:22;101557.41;;;4.41;100.00
21640;BME280;10981;45.462;10.974;2024-02-21T05:27:51;101551.56;;;4.36;100.00
21640;BME280;10981;45.462;10.974;2024-02-21T05:30:23;101546.34;;;4.38;100.00
21640;BME280;10981;45.462;10.974;2024-02-21T05:32:52;101550.81;;;4.34;100.00
21640;BME280;10981;45.462;10.974;2024-02-21T05:35:24;101555.91;;;4.36;100.00
21640;BME280;10981;45.462;10.974;2024-02-21T05:37:52;101555.09;;;4.35;100.00
21640;BME280;10981;45.462;10.974;2024-02-21T05:40:21;101550.81;;;4.34;100.00
21640;BME280;10981;45.462;10.974;2024-02-21T05:42:49;101549.69;;;4.40;100.00
21640;BME280;10981;45.462;10.974;2024-02-21T05:45:19;101558.91;;;4.47;100.00
21640;BME280;10981;45.462;10.974;2024-02-21T05:47:48;101555.59;;;4.44;100.00
21640;BME280;10981;45.462;10.974;2024-02-21T05:50:16;101553.97;;;4.41;100.00
21640;BME280;10981;45.462;10.974;2024-02-21T05:52:45;101561.63;;;4.44;100.00
21640;BME280;10981;45.462;10.974;2024-02-21T05:55:15;101560.63;;;4.48;100.00
21640;BME280;10981;45.462;10.974;2024-02-21T05:57:44;101553.66;;;4.49;100.00
21640;BME280;10981;45.462;10.974;2024-02-21T06:00:14;101544.84;;;4.32;100.00
21640;BME280;10981;45.462;10.974;2024-02-21T06:02:43;101551.28;;;4.22;100.00
21640;BME280;10981;45.462;10.974;2024-02-21T06:05:11;101552.19;;;4.21;100.00
21640;BME280;10981;45.462;10.974;2024-02-21T06:07:39;101552.78;;;4.28;100.00
21640;BME280;10981;45.462;10.974;2024-02-21T06:10:09;101553.41;;;4.34;100.00
21640;BME280;10981;45.462;10.974;2024-02-21T06:12:37;101555.03;;;4.37;100.00
21640;BME280;10981;45.462;10.974;2024-02-21T06:15:06;101553.19;;;4.39;100.00
21640;BME280;10981;45.462;10.974;2024-02-21T06:17:37;101558.19;;;4.44;100.00
21640;BME280;10981;45.462;10.974;2024-02-21T06:20:05;101558.50;;;4.36;100.00
21640;BME280;10981;45.462;10.974;2024-02-21T06:22:34;101566.19;;;4.17;100.00
21640;BME280;10981;45.462;10.974;2024-02-21T06:25:02;101579.97;;;4.17;100.00
21640;BME280;10981;45.462;10.974;2024-02-21T06:27:32;101581.84;;;4.14;100.00
21640;BME280;10981;45.462;10.974;2024-02-21T06:30:00;101586.16;;;4.13;100.00
21640;BME280;10981;45.462;10.974;2024-02-21T06:32:28;101583.47;;;4.16;100.00
21640;BME280;10981;45.462;10.974;2024-02-21T06:34:56;101582.38;;;4.22;100.00
21640;BME280;10981;45.462;10.974;2024-02-21T06:37:25;101581.28;;;4.28;100.00
21640;BME280;10981;45.462;10.974;2024-02-21T06:39:53;101584.41;;;4.36;100.00
21640;BME280;10981;45.462;10.974;2024-02-21T06:42:24;101587.50;;;4.46;100.00
21640;BME280;10981;45.462;10.974;2024-02-21T06:44:52;101585.25;;;4.58;100.00
21640;BME280;10981;45.462;10.974;2024-02-21T06:47:20;101594.13;;;4.73;100.00
21640;BME280;10981;45.462;10.974;2024-02-21T06:49:50;101591.72;;;4.89;100.00
21640;BME280;10981;45.462;10.974;2024-02-21T06:52:19;101593.69;;;5.05;100.00
21640;BME280;10981;45.462;10.974;2024-02-21T06:54:52;101593.88;;;5.21;100.00
21640;BME280;10981;45.462;10.974;2024-02-21T06:57:20;101600.00;;;5.39;100.00
21640;BME280;10981;45.462;10.974;2024-02-21T06:59:48;101600.50;;;5.47;100.00
21640;BME280;10981;45.462;10.974;2024-02-21T07:02:19;101600.22;;;5.53;100.00
21640;BME280;10981;45.462;10.974;2024-02-21T07:04:47;101598.41;;;5.55;100.00
21640;BME280;10981;45.462;10.974;2024-02-21T07:07:16;101596.09;;;5.49;100.00
21640;BME280;10981;45.462;10.974;2024-02-21T07:09:44;101595.03;;;5.53;100.00
21640;BME280;10981;45.462;10.974;2024-02-21T07:12:14;101601.16;;;5.71;100.00
21640;BME280;10981;45.462;10.974;2024-02-21T07:14:44;101602.06;;;5.89;100.00
21640;BME280;10981;45.462;10.974;2024-02-21T07:17:13;101608.28;;;6.06;100.00
21640;BME280;10981;45.462;10.974;2024-02-21T07:19:41;101608.94;;;6.29;100.00
21640;BME280;10981;45.462;10.974;2024-02-21T07:22:12;101605.03;;;6.37;100.00
21640;BME280;10981;45.462;10.974;2024-02-21T07:24:40;101609.66;;;6.50;100.00
21640;BME280;10981;45.462;10.974;2024-02-21T07:27:09;101605.94;;;6.56;100.00
21640;BME280;10981;45.462;10.974;2024-02-21T07:29:37;101599.66;;;6.60;100.00
21640;BME280;10981;45.462;10.974;2024-02-21T07:32:05;101604.41;;;6.69;100.00
21640;BME280;10981;45.462;10.974;2024-02-21T07:34:34;101603.09;;;6.78;100.00
21640;BME280;10981;45.462;10.974;2024-02-21T07:37:02;101609.75;;;7.01;100.00
21640;BME280;10981;45.462;10.974;2024-02-21T07:39:31;101607.22;;;7.17;100.00
21640;BME280;10981;45.462;10.974;2024-02-21T07:41:59;101616.03;;;7.48;100.00
21640;BME280;10981;45.462;10.974;2024-02-21T07:44:27;101622.28;;;7.61;100.00
21640;BME280;10981;45.462;10.974;2024-02-21T07:46:56;101621.53;;;7.75;100.00
21640;BME280;10981;45.462;10.974;2024-02-21T07:49:25;101633.25;;;8.16;100.00
21640;BME280;10981;45.462;10.974;2024-02-21T07:51:53;101634.91;;;8.49;100.00
21640;BME280;10981;45.462;10.974;2024-02-21T07:54:21;101630.53;;;8.80;100.00
21640;BME280;10981;45.462;10.974;2024-02-21T07:56:50;101635.84;;;9.09;100.00
21640;BME280;10981;45.462;10.974;2024-02-21T07:59:18;101623.72;;;9.37;100.00
21640;BME280;10981;45.462;10.974;2024-02-21T08:01:46;101619.72;;;9.74;100.00
21640;BME280;10981;45.462;10.974;2024-02-21T08:04:14;101617.38;;;10.11;100.00
21640;BME280;10981;45.462;10.974;2024-02-21T08:06:43;101619.84;;;10.42;100.00
21640;BME280;10981;45.462;10.974;2024-02-21T08:09:13;101620.41;;;10.60;100.00
21640;BME280;10981;45.462;10.974;2024-02-21T08:11:41;101631.47;;;10.78;100.00
21640;BME280;10981;45.462;10.974;2024-02-21T08:14:09;101636.50;;;11.33;100.00
21640;BME280;10981;45.462;10.974;2024-02-21T08:16:38;101636.56;;;11.96;100.00
21640;BME280;10981;45.462;10.974;2024-02-21T08:19:06;101640.44;;;12.03;100.00
21640;BME280;10981;45.462;10.974;2024-02-21T08:21:37;101652.31;;;12.20;100.00
21640;BME280;10981;45.462;10.974;2024-02-21T08:24:06;101643.00;;;12.16;100.00
21640;BME280;10981;45.462;10.974;2024-02-21T08:26:34;101646.75;;;12.49;100.00
21640;BME280;10981;45.462;10.974;2024-02-21T08:29:04;101652.59;;;12.77;100.00
21640;BME280;10981;45.462;10.974;2024-02-21T08:31:32;101647.81;;;12.82;100.00
21640;BME280;10981;45.462;10.974;2024-02-21T08:34:02;101644.44;;;12.68;100.00
21640;BME280;10981;45.462;10.974;2024-02-21T08:36:35;101641.56;;;12.71;100.00
21640;BME280;10981;45.462;10.974;2024-02-21T08:39:04;101632.97;;;12.69;100.00
21640;BME280;10981;45.462;10.974;2024-02-21T08:41:34;101631.06;;;12.71;100.00
21640;BME280;10981;45.462;10.974;2024-02-21T08:44:23;101625.13;;;12.81;100.00
21640;BME280;10981;45.462;10.974;2024-02-21T08:46:55;101623.00;;;12.86;100.00
21640;BME280;10981;45.462;10.974;2024-02-21T08:49:25;101627.88;;;12.90;100.00
21640;BME280;10981;45.462;10.974;2024-02-21T08:52:02;101623.97;;;12.96;100.00
21640;BME280;10981;45.462;10.974;2024-02-21T08:54:32;101627.91;;;13.02;100.00
21640;BME280;10981;45.462;10.974;2024-02-21T08:57:02;101626.38;;;13.11;100.00
21640;BME280;10981;45.462;10.974;2024-02-21T08:59:31;101623.06;;;13.08;100.00
21640;BME280;10981;45.462;10.974;2024-02-21T09:02:00;101623.16;;;13.07;100.00
21640;BME280;10981;45.462;10.974;2024-02-21T09:04:28;101616.34;;;13.16;100.00
21640;BME280;10981;45.462;10.974;2024-02-21T09:06:57;101614.94;;;13.23;100.00
21640;BME280;10981;45.462;10.974;2024-02-21T09:09:25;101606.09;;;13.24;100.00
21640;BME280;10981;45.462;10.974;2024-02-21T09:11:56;101616.28;;;13.40;100.00
21640;BME280;10981;45.462;10.974;2024-02-21T09:14:25;101607.69;;;13.38;100.00
21640;BME280;10981;45.462;10.974;2024-02-21T09:16:54;101605.53;;;13.54;100.00
21640;BME280;10981;45.462;10.974;2024-02-21T09:19:24;101604.34;;;13.47;100.00
21640;BME280;10981;45.462;10.974;2024-02-21T09:21:52;101605.41;;;13.67;100.00
21640;BME280;10981;45.462;10.974;2024-02-21T09:24:21;101597.03;;;13.73;100.00
21640;BME280;10981;45.462;10.974;2024-02-21T09:26:49;101607.78;;;13.70;100.00
21640;BME280;10981;45.462;10.974;2024-02-21T09:29:18;101599.91;;;13.59;100.00
21640;BME280;10981;45.462;10.974;2024-02-21T09:31:47;101611.50;;;13.68;100.00
21640;BME280;10981;45.462;10.974;2024-02-21T09:34:16;101610.66;;;13.79;100.00
21640;BME280;10981;45.462;10.974;2024-02-21T09:36:44;101604.53;;;13.89;100.00
21640;BME280;10981;45.462;10.974;2024-02-21T09:39:13;101602.00;;;13.99;100.00
21640;BME280;10981;45.462;10.974;2024-02-21T09:41:50;101596.38;;;14.04;100.00
21640;BME280;10981;45.462;10.974;2024-02-21T09:44:32;101600.63;;;14.16;100.00
21640;BME280;10981;45.462;10.974;2024-02-21T09:47:09;101602.78;;;14.11;100.00
21640;BME280;10981;45.462;10.974;2024-02-21T09:49:41;101607.81;;;14.14;100.00
21640;BME280;10981;45.462;10.974;2024-02-21T09:52:11;101602.69;;;14.13;100.00
21640;BME280;10981;45.462;10.974;2024-02-21T09:54:42;101601.44;;;14.28;100.00
21640;BME280;10981;45.462;10.974;2024-02-21T09:57:14;101598.41;;;14.33;100.00
21640;BME280;10981;45.462;10.974;2024-02-21T09:59:44;101593.59;;;14.38;100.00
21640;BME280;10981;45.462;10.974;2024-02-21T10:02:13;101596.75;;;14.53;100.00
21640;BME280;10981;45.462;10.974;2024-02-21T10:04:42;101583.38;;;14.56;100.00
21640;BME280;10981;45.462;10.974;2024-02-21T10:07:10;101587.13;;;14.42;100.00
21640;BME280;10981;45.462;10.974;2024-02-21T10:09:39;101596.59;;;14.45;100.00
21640;BME280;10981;45.462;10.974;2024-02-21T10:12:09;101585.06;;;14.46;100.00
21640;BME280;10981;45.462;10.974;2024-02-21T10:14:39;101584.88;;;14.37;99.33
21640;BME280;10981;45.462;10.974;2024-02-21T10:17:15;101581.78;;;14.32;99.21
21640;BME280;10981;45.462;10.974;2024-02-21T10:19:43;101582.81;;;14.41;100.00
21640;BME280;10981;45.462;10.974;2024-02-21T10:22:12;101586.06;;;14.45;100.00
21640;BME280;10981;45.462;10.974;2024-02-21T10:24:40;101585.19;;;14.44;99.75
21640;BME280;10981;45.462;10.974;2024-02-21T10:27:11;101583.78;;;14.40;100.00
21640;BME280;10981;45.462;10.974;2024-02-21T10:29:41;101594.91;;;14.44;100.00
21640;BME280;10981;45.462;10.974;2024-02-21T10:32:12;101590.69;;;14.52;100.00
21640;BME280;10981;45.462;10.974;2024-02-21T10:34:42;101589.72;;;14.53;100.00
21640;BME280;10981;45.462;10.974;2024-02-21T10:37:12;101597.72;;;14.52;100.00
21640;BME280;10981;45.462;10.974;2024-02-21T10:39:41;101592.66;;;14.60;100.00
21640;BME280;10981;45.462;10.974;2024-02-21T10:42:15;101589.97;;;14.50;98.89
21640;BME280;10981;45.462;10.974;2024-02-21T10:44:45;101588.78;;;14.43;99.93
21640;BME280;10981;45.462;10.974;2024-02-21T10:47:20;101584.97;;;14.47;100.00
21640;BME280;10981;45.462;10.974;2024-02-21T10:49:57;101580.28;;;14.51;100.00
21640;BME280;10981;45.462;10.974;2024-02-21T10:52:56;101574.44;;;14.68;100.00
21640;BME280;10981;45.462;10.974;2024-02-21T10:55:37;101577.47;;;14.85;100.00
21640;BME280;10981;45.462;10.974;2024-02-21T10:58:08;101581.75;;;14.86;100.00
21640;BME280;10981;45.462;10.974;2024-02-21T11:00:37;101570.97;;;14.89;100.00
21640;BME280;10981;45.462;10.974;2024-02-21T11:03:06;101561.66;;;14.85;100.00
21640;BME280;10981;45.462;10.974;2024-02-21T11:05:36;101558.78;;;14.88;100.00
21640;BME280;10981;45.462;10.974;2024-02-21T11:08:06;101550.47;;;14.93;100.00
21640;BME280;10981;45.462;10.974;2024-02-21T11:10:37;101547.34;;;15.09;100.00
21640;BME280;10981;45.462;10.974;2024-02-21T11:13:09;101546.31;;;15.21;100.00
21640;BME280;10981;45.462;10.974;2024-02-21T11:15:38;101537.28;;;15.24;100.00
21640;BME280;10981;45.462;10.974;2024-02-21T11:18:06;101527.31;;;15.27;100.00
21640;BME280;10981;45.462;10.974;2024-02-21T11:20:38;101514.25;;;15.26;100.00
21640;BME280;10981;45.462;10.974;2024-02-21T11:23:07;101516.59;;;15.19;100.00
21640;BME280;10981;45.462;10.974;2024-02-21T11:25:36;101515.66;;;15.30;100.00
21640;BME280;10981;45.462;10.974;2024-02-21T11:28:06;101501.78;;;15.28;100.00
21640;BME280;10981;45.462;10.974;2024-02-21T11:30:38;101509.28;;;15.42;100.00
21640;BME280;10981;45.462;10.974;2024-02-21T11:33:07;101506.00;;;15.60;100.00
21640;BME280;10981;45.462;10.974;2024-02-21T11:35:36;101502.00;;;15.75;100.00
21640;BME280;10981;45.462;10.974;2024-02-21T11:38:23;101490.78;;;15.83;100.00
21640;BME280;10981;45.462;10.974;2024-02-21T11:40:53;101493.00;;;15.88;100.00
21640;BME280;10981;45.462;10.974;2024-02-21T11:43:22;101500.22;;;15.95;100.00
21640;BME280;10981;45.462;10.974;2024-02-21T11:45:57;101494.50;;;16.20;100.00
21640;BME280;10981;45.462;10.974;2024-02-21T11:48:26;101490.16;;;16.48;100.00
21640;BME280;10981;45.462;10.974;2024-02-21T11:50:55;101475.94;;;16.69;100.00
21640;BME280;10981;45.462;10.974;2024-02-21T11:53:24;101478.31;;;16.99;100.00
21640;BME280;10981;45.462;10.974;2024-02-21T11:55:53;101463.56;;;17.07;100.00
21640;BME280;10981;45.462;10.974;2024-02-21T11:58:24;101466.38;;;17.23;99.89
21640;BME280;10981;45.462;10.974;2024-02-21T12:00:52;101463.28;;;17.46;99.76
21640;BME280;10981;45.462;10.974;2024-02-21T12:03:21;101470.19;;;17.39;99.26
21640;BME280;10981;45.462;10.974;2024-02-21T12:05:49;101458.88;;;17.19;100.00
21640;BME280;10981;45.462;10.974;2024-02-21T12:08:23;101457.84;;;17.02;100.00
21640;BME280;10981;45.462;10.974;2024-02-21T12:10:52;101453.59;;;17.19;100.00
21640;BME280;10981;45.462;10.974;2024-02-21T12:13:26;101449.78;;;17.31;100.00
21640;BME280;10981;45.462;10.974;2024-02-21T12:15:56;101440.22;;;17.38;100.00
21640;BME280;10981;45.462;10.974;2024-02-21T12:18:25;101440.50;;;17.45;100.00
21640;BME280;10981;45.462;10.974;2024-02-21T12:20:53;101429.59;;;17.48;99.19
21640;BME280;10981;45.462;10.974;2024-02-21T12:23:28;101421.28;;;17.61;100.00
21640;BME280;10981;45.462;10.974;2024-02-21T12:25:59;101416.66;;;17.63;100.00
21640;BME280;10981;45.462;10.974;2024-02-21T12:28:28;101415.06;;;17.52;99.82
21640;BME280;10981;45.462;10.974;2024-02-21T12:30:56;101401.09;;;17.24;100.00
21640;BME280;10981;45.462;10.974;2024-02-21T12:33:24;101406.84;;;16.91;100.00
21640;BME280;10981;45.462;10.974;2024-02-21T12:35:53;101403.31;;;16.73;100.00
21640;BME280;10981;45.462;10.974;2024-02-21T12:38:23;101395.94;;;16.76;100.00
21640;BME280;10981;45.462;10.974;2024-02-21T12:40:51;101401.44;;;16.93;100.00
21640;BME280;10981;45.462;10.974;2024-02-21T12:43:20;101395.94;;;16.76;100.00
21640;BME280;10981;45.462;10.974;2024-02-21T12:45:48;101388.88;;;16.95;100.00